createdAt,value
2023-01-18T00:01:15.466Z,9.90
2023-01-18T00:03:42.551Z,5.07
2023-01-18T00:06:11.220Z,5.97
2023-01-18T00:08:39.965Z,5.57
2023-01-18T00:11:15.646Z,7.97
2023-01-18T00:13:43.143Z,7.90
2023-01-18T00:16:19.571Z,6.07
2023-01-18T00:18:56.091Z,5.03
2023-01-18T00:21:24.566Z,5.30
2023-01-18T00:23:51.553Z,5.70
2023-01-18T00:26:19.307Z,6.17
2023-01-18T00:28:46.426Z,5.53
2023-01-18T00:31:20.092Z,9.27
2023-01-18T00:33:49.485Z,7.40
2023-01-18T00:36:17.873Z,8.10
2023-01-18T00:38:52.129Z,6.47
2023-01-18T00:41:20.910Z,7.10
2023-01-18T00:43:48.151Z,7.70
2023-01-18T00:46:18.976Z,9.40
2023-01-18T00:48:45.805Z,6.37
2023-01-18T00:51:19.047Z,8.93
2023-01-18T00:53:46.304Z,6.63
2023-01-18T00:56:21.564Z,6.70
2023-01-18T00:58:48.737Z,6.80
2023-01-18T01:01:16.044Z,10.17
2023-01-18T01:04:01.266Z,9.43
2023-01-18T01:06:45.741Z,7.40
2023-01-18T01:09:24.970Z,11.37
2023-01-18T01:12:11.987Z,10.53
2023-01-18T01:15:02.286Z,10.90
2023-01-18T01:17:50.151Z,9.20
2023-01-18T01:20:35.688Z,12.37
2023-01-18T01:23:31.208Z,7.40
2023-01-18T01:26:24.724Z,8.90
2023-01-18T01:28:53.178Z,8.27
2023-01-18T01:31:20.567Z,10.07
2023-01-18T01:33:49.042Z,6.90
2023-01-18T01:36:27.557Z,8.03
2023-01-18T01:38:57.150Z,7.70
2023-01-18T01:41:33.349Z,9.80
2023-01-18T01:44:28.048Z,7.90
2023-01-18T01:47:09.442Z,6.50
2023-01-18T01:49:46.201Z,7.80
2023-01-18T01:52:23.994Z,7.40
2023-01-18T01:55:05.238Z,6.23
2023-01-18T01:57:55.529Z,8.30
2023-01-18T02:00:24.408Z,7.13
2023-01-18T02:03:01.650Z,11.00
2023-01-18T02:05:31.736Z,6.23
2023-01-18T02:08:02.145Z,6.93
2023-01-18T02:10:30.585Z,8.33
2023-01-18T02:13:00.826Z,8.73
2023-01-18T02:15:45.930Z,6.17
2023-01-18T02:18:38.680Z,7.93
2023-01-18T02:21:16.066Z,7.40
2023-01-18T02:24:00.817Z,6.30
2023-01-18T02:26:53.620Z,14.00
2023-01-18T02:29:32.712Z,6.63
2023-01-18T02:32:16.322Z,6.37
2023-01-18T02:34:47.584Z,6.17
2023-01-18T02:37:24.271Z,7.73
2023-01-18T02:40:18.774Z,6.93
2023-01-18T02:43:04.069Z,8.67
2023-01-18T02:46:00.205Z,5.80
2023-01-18T02:48:37.085Z,6.33
2023-01-18T02:51:04.918Z,7.10
2023-01-18T02:53:40.093Z,6.17
2023-01-18T02:56:17.888Z,6.93
2023-01-18T02:58:54.902Z,5.43
2023-01-18T03:01:33.284Z,8.97
2023-01-18T03:04:15.614Z,5.27
2023-01-18T03:06:48.644Z,6.73
2023-01-18T03:09:21.181Z,5.27
2023-01-18T03:11:52.050Z,6.07
2023-01-18T03:15:04.907Z,6.70
2023-01-18T03:17:45.828Z,6.00
2023-01-18T03:20:18.470Z,6.97
2023-01-18T03:23:12.607Z,6.97
2023-01-18T03:25:44.465Z,6.37
2023-01-18T03:28:39.323Z,6.43
2023-01-18T03:31:36.168Z,8.17
2023-01-18T03:34:26.016Z,8.93
2023-01-18T03:36:57.874Z,7.27
2023-01-18T03:39:49.573Z,7.77
2023-01-18T03:42:25.865Z,6.63
2023-01-18T03:45:18.625Z,7.67
2023-01-18T03:47:50.200Z,6.93
2023-01-18T03:50:34.456Z,8.13
2023-01-18T03:53:12.152Z,6.23
2023-01-18T03:55:51.443Z,9.93
2023-01-18T03:58:28.100Z,6.50
2023-01-18T04:00:55.030Z,7.20
2023-01-18T04:03:22.929Z,7.70
2023-01-18T04:05:49.998Z,7.60
2023-01-18T04:08:16.699Z,6.97
2023-01-18T04:10:43.470Z,9.87
2023-01-18T04:13:10.271Z,6.90
2023-01-18T04:15:37.018Z,7.63
2023-01-18T04:18:04.041Z,7.70
2023-01-18T04:20:30.751Z,8.43
2023-01-18T04:22:57.807Z,10.63
2023-01-18T04:25:24.791Z,8.43
2023-01-18T04:27:51.519Z,7.93
2023-01-18T04:30:18.521Z,14.40
2023-01-18T04:32:46.196Z,7.93
2023-01-18T04:35:13.828Z,8.37
2023-01-18T04:37:40.975Z,7.90
2023-01-18T04:40:09.124Z,8.03
2023-01-18T04:42:35.857Z,9.23
2023-01-18T04:45:02.678Z,9.10
2023-01-18T04:47:29.496Z,12.57
2023-01-18T04:49:59.251Z,10.57
2023-01-18T04:52:26.723Z,8.60
2023-01-18T04:54:53.572Z,9.47
2023-01-18T04:57:20.818Z,10.70
2023-01-18T04:59:47.595Z,8.77
2023-01-18T05:02:15.866Z,10.07
2023-01-18T05:04:43.544Z,8.40
2023-01-18T05:07:11.477Z,10.83
2023-01-18T05:09:38.314Z,10.67
2023-01-18T05:12:05.189Z,11.57
2023-01-18T05:14:32.011Z,10.20
2023-01-18T05:16:58.778Z,10.50
2023-01-18T05:19:30.194Z,10.33
2023-01-18T05:21:56.987Z,9.20
2023-01-18T05:24:23.719Z,8.43
2023-01-18T05:26:50.591Z,11.90
2023-01-18T05:29:17.850Z,12.93
2023-01-18T05:31:44.756Z,15.43
2023-01-18T05:34:11.555Z,9.10
2023-01-18T05:36:38.315Z,10.90
2023-01-18T05:39:05.175Z,9.37
2023-01-18T05:41:31.895Z,12.80
2023-01-18T05:43:58.694Z,10.27
2023-01-18T05:46:25.541Z,11.23
2023-01-18T05:48:57.545Z,10.73
2023-01-18T05:51:24.627Z,12.93
2023-01-18T05:53:51.705Z,10.00
2023-01-18T05:56:18.432Z,11.27
2023-01-18T05:58:45.176Z,10.80
2023-01-18T06:01:12.016Z,13.70
2023-01-18T06:03:39.963Z,14.77
2023-01-18T06:06:06.817Z,12.57
2023-01-18T06:08:33.870Z,10.33
2023-01-18T06:11:01.296Z,13.83
2023-01-18T06:13:31.409Z,10.27
2023-01-18T06:16:00.720Z,11.70
2023-01-18T06:18:31.110Z,12.83
2023-01-18T06:21:01.553Z,14.80
2023-01-18T06:23:29.900Z,15.03
2023-01-18T06:25:57.301Z,11.37
2023-01-18T06:28:24.607Z,13.40
2023-01-18T06:30:56.303Z,12.67
2023-01-18T06:33:24.434Z,10.77
2023-01-18T06:35:52.208Z,15.37
2023-01-18T06:38:19.019Z,14.00
2023-01-18T06:40:45.794Z,14.03
2023-01-18T06:43:13.993Z,13.53
2023-01-18T06:45:41.315Z,11.37
2023-01-18T06:48:08.201Z,16.07
2023-01-18T06:50:34.923Z,11.43
2023-01-18T06:53:01.761Z,15.37
2023-01-18T06:55:28.485Z,16.90
2023-01-18T06:57:56.934Z,12.27
2023-01-18T07:00:23.900Z,16.57
2023-01-18T07:02:52.931Z,12.83
2023-01-18T07:05:19.854Z,13.53
2023-01-18T07:07:46.603Z,15.40
2023-01-18T07:10:16.206Z,15.90
2023-01-18T07:12:47.281Z,15.70
2023-01-18T07:15:21.661Z,12.17
2023-01-18T07:17:50.199Z,17.07
2023-01-18T07:20:17.315Z,14.80
2023-01-18T07:22:44.090Z,14.23
2023-01-18T07:25:13.173Z,14.23
2023-01-18T07:27:43.149Z,12.83
2023-01-18T07:30:14.767Z,14.60
2023-01-18T07:32:49.555Z,15.07
2023-01-18T07:35:18.482Z,14.57
2023-01-18T07:37:50.395Z,16.37
2023-01-18T07:40:17.577Z,14.50
2023-01-18T07:42:44.620Z,16.43
2023-01-18T07:45:13.592Z,14.17
2023-01-18T07:47:42.480Z,17.07
2023-01-18T07:50:10.639Z,19.87
2023-01-18T07:52:37.427Z,17.30
2023-01-18T07:55:06.725Z,13.87
2023-01-18T07:57:33.599Z,13.90
2023-01-18T08:00:00.519Z,15.53
2023-01-18T08:02:27.334Z,15.70
2023-01-18T08:04:54.138Z,15.13
2023-01-18T08:07:20.951Z,18.83
2023-01-18T08:09:47.671Z,16.07
2023-01-18T08:12:17.964Z,14.67
2023-01-18T08:14:46.017Z,19.53
2023-01-18T08:17:12.834Z,17.83
2023-01-18T08:19:39.611Z,12.43
2023-01-18T08:22:07.877Z,16.87
2023-01-18T08:24:34.583Z,20.10
2023-01-18T08:27:01.449Z,13.77
2023-01-18T08:29:28.165Z,15.90
2023-01-18T08:31:56.062Z,16.80
2023-01-18T08:34:22.943Z,25.03
2023-01-18T08:36:50.955Z,19.77
2023-01-18T08:39:17.772Z,18.60
2023-01-18T08:41:46.473Z,19.30
2023-01-18T08:44:13.221Z,19.53
2023-01-18T08:46:40.305Z,25.50
2023-01-18T08:49:07.179Z,25.27
2023-01-18T08:51:33.942Z,24.33
2023-01-18T08:54:00.800Z,25.67
2023-01-18T08:56:28.129Z,24.20
2023-01-18T08:58:55.503Z,23.23
2023-01-18T09:01:23.481Z,25.57
2023-01-18T09:03:54.864Z,26.13
2023-01-18T09:06:22.068Z,22.17
2023-01-18T09:08:49.476Z,19.70
2023-01-18T09:11:17.615Z,24.20
2023-01-18T09:13:59.309Z,28.40
2023-01-18T09:16:27.420Z,25.43
2023-01-18T09:18:56.066Z,26.87
2023-01-18T09:21:22.999Z,23.83
2023-01-18T09:23:50.763Z,18.03
2023-01-18T09:26:20.909Z,18.77
2023-01-18T09:28:53.317Z,22.97
2023-01-18T09:31:23.205Z,22.07
2023-01-18T09:33:54.015Z,21.67
2023-01-18T09:36:26.203Z,20.83
2023-01-18T09:38:54.232Z,22.17
2023-01-18T09:41:42.689Z,17.30
2023-01-18T09:44:28.857Z,20.80
2023-01-18T09:47:14.939Z,23.87
2023-01-18T09:49:54.887Z,22.57
2023-01-18T09:52:53.408Z,19.77
2023-01-18T09:55:56.860Z,19.07
2023-01-18T09:59:08.783Z,22.63
2023-01-18T10:01:37.785Z,20.73
2023-01-18T10:04:17.128Z,19.53
2023-01-18T10:07:01.499Z,20.87
2023-01-18T10:09:28.183Z,13.93
2023-01-18T10:12:14.097Z,16.77
2023-01-18T10:15:10.298Z,18.33
2023-01-18T10:17:41.389Z,14.17
2023-01-18T10:20:33.768Z,17.40
2023-01-18T10:23:07.194Z,18.50
2023-01-18T10:25:52.201Z,14.80
2023-01-18T10:28:39.534Z,14.07
2023-01-18T10:31:38.534Z,12.27
2023-01-18T10:34:18.291Z,15.40
2023-01-18T10:36:54.966Z,12.30
2023-01-18T10:39:38.275Z,13.50
2023-01-18T10:42:40.337Z,12.90
2023-01-18T10:45:25.288Z,14.50
2023-01-18T10:47:55.175Z,13.73
2023-01-18T10:50:43.999Z,11.57
2023-01-18T10:53:32.516Z,11.40
2023-01-18T10:56:11.884Z,12.07
2023-01-18T10:58:57.904Z,11.63
2023-01-18T11:01:33.250Z,9.77
2023-01-18T11:04:08.090Z,11.23
2023-01-18T11:06:54.343Z,10.73
2023-01-18T11:10:04.443Z,12.90
2023-01-18T11:12:47.766Z,8.43
2023-01-18T11:15:14.602Z,9.87
2023-01-18T11:17:54.353Z,12.60
2023-01-18T11:20:45.910Z,11.23
2023-01-18T11:23:44.556Z,11.10
2023-01-18T11:26:18.970Z,14.13
2023-01-18T11:29:00.460Z,9.60
2023-01-18T11:31:45.393Z,9.87
2023-01-18T11:34:35.634Z,9.47
2023-01-18T11:37:04.070Z,9.70
2023-01-18T11:39:36.539Z,9.17
2023-01-18T11:42:32.475Z,9.40
2023-01-18T11:45:25.139Z,8.60
2023-01-18T11:48:27.822Z,8.33
2023-01-18T11:51:02.640Z,8.23
2023-01-18T11:53:50.875Z,7.73
2023-01-18T11:56:42.381Z,7.60
2023-01-18T11:59:27.502Z,7.17
2023-01-18T12:02:31.357Z,6.03
2023-01-18T12:05:16.930Z,6.33
2023-01-18T12:08:24.163Z,6.37
2023-01-18T12:11:06.775Z,5.40
2023-01-18T12:13:52.608Z,6.47
2023-01-18T12:16:46.298Z,6.57
2023-01-18T12:19:56.478Z,6.47
2023-01-18T12:23:09.092Z,6.70
2023-01-18T12:26:11.075Z,6.53
2023-01-18T12:28:50.523Z,5.90
2023-01-18T12:31:54.737Z,5.90
2023-01-18T12:35:02.237Z,5.60
2023-01-18T12:38:06.245Z,4.90
2023-01-18T12:40:44.725Z,5.77
2023-01-18T12:43:42.801Z,5.20
2023-01-18T12:46:38.687Z,4.93
2023-01-18T12:49:18.629Z,5.73
2023-01-18T12:51:54.023Z,5.63
2023-01-18T12:54:39.660Z,5.37
2023-01-18T12:57:07.783Z,6.23
2023-01-18T12:59:51.170Z,5.80
2023-01-18T13:02:40.444Z,6.07
2023-01-18T13:05:35.344Z,7.30
2023-01-18T13:08:23.789Z,6.67
2023-01-18T13:11:02.695Z,5.60
2023-01-18T13:13:30.856Z,6.27
2023-01-18T13:16:34.999Z,6.47
2023-01-18T13:19:11.500Z,9.10
2023-01-18T13:22:24.210Z,7.50
2023-01-18T13:25:26.239Z,6.80
2023-01-18T13:28:13.624Z,7.37
2023-01-18T13:31:04.475Z,8.03
2023-01-18T13:33:35.493Z,7.07
2023-01-18T13:36:45.579Z,6.90
2023-01-18T13:39:18.972Z,8.70
2023-01-18T13:42:03.951Z,9.27
2023-01-18T13:44:44.237Z,8.67
2023-01-18T13:47:45.854Z,6.83
2023-01-18T13:50:39.724Z,8.73
2023-01-18T13:53:15.725Z,7.70
2023-01-18T13:56:08.615Z,7.57
2023-01-18T13:58:38.554Z,8.67
2023-01-18T14:01:07.839Z,8.00
2023-01-18T14:03:44.538Z,8.60
2023-01-18T14:06:43.275Z,8.63
2023-01-18T14:09:14.968Z,9.03
2023-01-18T14:11:58.371Z,7.60
2023-01-18T14:14:53.387Z,7.90
2023-01-18T14:17:20.148Z,8.07
2023-01-18T14:19:55.333Z,7.90
2023-01-18T14:22:40.799Z,8.40
2023-01-18T14:25:53.477Z,8.23
2023-01-18T14:28:36.376Z,8.23
2023-01-18T14:31:05.456Z,7.77
2023-01-18T14:33:37.184Z,8.60
2023-01-18T14:36:06.573Z,7.70
2023-01-18T14:38:33.325Z,9.03
2023-01-18T14:41:06.764Z,8.37
2023-01-18T14:43:44.294Z,7.20
2023-01-18T14:46:22.509Z,7.93
2023-01-18T14:48:56.183Z,7.50
2023-01-18T14:51:28.495Z,9.57
2023-01-18T14:54:01.909Z,7.70
2023-01-18T14:56:33.954Z,8.53
2023-01-18T14:59:22.184Z,9.47
2023-01-18T15:02:25.873Z,8.43
2023-01-18T15:05:16.709Z,7.47
2023-01-18T15:07:56.096Z,7.10
2023-01-18T15:10:24.487Z,7.57
2023-01-18T15:12:57.585Z,7.90
2023-01-18T15:15:38.913Z,6.83
2023-01-18T15:18:27.555Z,6.80
2023-01-18T15:20:57.858Z,7.00
2023-01-18T15:23:26.955Z,6.43
2023-01-18T15:25:55.401Z,6.60
2023-01-18T15:28:28.636Z,6.70
2023-01-18T15:30:57.464Z,6.87
2023-01-18T15:33:27.153Z,5.90
2023-01-18T15:35:59.534Z,6.37
2023-01-18T15:38:27.237Z,7.47
2023-01-18T15:41:17.153Z,8.23
2023-01-18T15:43:45.968Z,9.17
2023-01-18T15:46:16.495Z,7.97
2023-01-18T15:48:57.498Z,7.13
2023-01-18T15:51:44.793Z,6.93
2023-01-18T15:54:28.282Z,9.53
2023-01-18T15:57:20.001Z,6.57
2023-01-18T15:59:47.849Z,6.90
2023-01-18T16:02:21.281Z,6.93
2023-01-18T16:04:48.039Z,6.90
2023-01-18T16:07:30.030Z,8.67
2023-01-18T16:10:27.929Z,6.73
2023-01-18T16:13:16.634Z,8.53
2023-01-18T16:15:44.697Z,9.07
2023-01-18T16:18:13.613Z,7.73
2023-01-18T16:20:40.625Z,8.03
2023-01-18T16:23:17.770Z,6.87
2023-01-18T16:26:00.190Z,7.00
2023-01-18T16:28:27.038Z,8.90
2023-01-18T16:30:54.650Z,9.23
2023-01-18T16:33:21.941Z,7.67
2023-01-18T16:35:49.404Z,9.40
2023-01-18T16:38:19.940Z,8.97
2023-01-18T16:40:50.183Z,9.00
2023-01-18T16:43:19.546Z,8.10
2023-01-18T16:45:50.397Z,8.40
2023-01-18T16:48:24.670Z,9.13
2023-01-18T16:50:52.460Z,7.73
2023-01-18T16:53:19.417Z,7.50
2023-01-18T16:55:48.387Z,8.30
2023-01-18T16:58:18.646Z,14.53
2023-01-18T17:01:00.079Z,10.13
2023-01-18T17:03:27.553Z,10.17
2023-01-18T17:05:55.194Z,8.77
2023-01-18T17:08:21.895Z,11.20
2023-01-18T17:10:51.035Z,10.30
2023-01-18T17:13:18.140Z,9.03
2023-01-18T17:15:45.449Z,10.87
2023-01-18T17:18:22.324Z,9.97
2023-01-18T17:20:49.761Z,9.60
2023-01-18T17:23:17.724Z,11.53
2023-01-18T17:25:44.691Z,9.47
2023-01-18T17:28:16.967Z,9.00
2023-01-18T17:30:46.988Z,8.87
2023-01-18T17:33:22.180Z,9.30
2023-01-18T17:35:54.356Z,8.60
2023-01-18T17:38:25.057Z,8.10
2023-01-18T17:40:53.383Z,10.97
2023-01-18T17:43:36.219Z,9.33
2023-01-18T17:46:07.552Z,11.40
2023-01-18T17:48:34.852Z,9.87
2023-01-18T17:51:05.350Z,7.37
2023-01-18T17:53:32.085Z,6.60
2023-01-18T17:55:58.837Z,8.10
2023-01-18T17:58:26.123Z,9.00
2023-01-18T18:00:53.387Z,7.60
2023-01-18T18:03:20.623Z,7.80
2023-01-18T18:05:47.359Z,7.70
2023-01-18T18:08:14.091Z,9.87
2023-01-18T18:10:43.578Z,7.97
2023-01-18T18:13:10.343Z,7.10
2023-01-18T18:15:37.091Z,9.13
2023-01-18T18:18:05.566Z,9.37
2023-01-18T18:20:34.253Z,9.20
2023-01-18T18:23:01.522Z,7.07
2023-01-18T18:25:28.464Z,7.20
2023-01-18T18:27:55.243Z,8.97
2023-01-18T18:30:22.149Z,12.03
2023-01-18T18:32:48.943Z,11.20
2023-01-18T18:35:24.946Z,7.57
2023-01-18T18:37:53.920Z,9.00
2023-01-18T18:40:21.165Z,7.93
2023-01-18T18:43:00.812Z,8.90
2023-01-18T18:45:32.570Z,9.27
2023-01-18T18:48:00.372Z,6.67
2023-01-18T18:50:28.422Z,7.70
2023-01-18T18:52:55.192Z,7.00
2023-01-18T18:55:21.948Z,9.43
2023-01-18T18:57:48.774Z,9.33
2023-01-18T19:00:16.356Z,7.53
2023-01-18T19:02:43.246Z,7.53
2023-01-18T19:05:13.247Z,9.10
2023-01-18T19:07:42.234Z,7.77
2023-01-18T19:10:11.389Z,7.10
2023-01-18T19:12:38.137Z,10.10
2023-01-18T19:15:05.495Z,8.20
2023-01-18T19:17:32.319Z,10.30
2023-01-18T19:19:59.400Z,14.43
2023-01-18T19:22:26.429Z,9.17
2023-01-18T19:24:53.221Z,9.37
2023-01-18T19:27:21.224Z,15.63
2023-01-18T19:29:48.026Z,8.50
2023-01-18T19:32:15.285Z,9.52
2023-01-18T19:34:42.099Z,12.13
2023-01-18T19:37:08.817Z,9.63
2023-01-18T19:39:35.816Z,8.87
2023-01-18T19:42:02.880Z,8.70
2023-01-18T19:44:29.855Z,8.07
2023-01-18T19:46:56.875Z,8.63
2023-01-18T19:49:26.135Z,7.87
2023-01-18T19:51:54.348Z,8.43
2023-01-18T19:54:21.679Z,9.07
2023-01-18T19:56:48.554Z,9.07
2023-01-18T19:59:15.405Z,9.40
2023-01-18T20:01:42.290Z,9.63
2023-01-18T20:04:09.574Z,8.63
2023-01-18T20:06:39.993Z,9.00
2023-01-18T20:09:18.576Z,8.03
2023-01-18T20:11:46.357Z,7.60
2023-01-18T20:14:13.233Z,11.23
2023-01-18T20:16:40.224Z,9.30
2023-01-18T20:19:12.643Z,11.18
2023-01-18T20:21:39.354Z,9.50
2023-01-18T20:24:06.564Z,9.37
2023-01-18T20:26:36.928Z,9.03
2023-01-18T20:29:07.601Z,10.80
2023-01-18T20:31:39.197Z,10.53
2023-01-18T20:34:08.087Z,7.97
2023-01-18T20:36:36.026Z,9.90
2023-01-18T20:39:05.153Z,7.90
2023-01-18T20:41:31.994Z,8.07
2023-01-18T20:43:58.712Z,8.37
2023-01-18T20:46:25.431Z,9.70
2023-01-18T20:48:52.171Z,8.17
2023-01-18T20:51:18.909Z,11.07
2023-01-18T20:53:45.701Z,10.50
2023-01-18T20:56:27.936Z,8.80
2023-01-18T20:58:55.501Z,12.43
2023-01-18T21:01:22.713Z,11.13
2023-01-18T21:03:55.052Z,9.80
2023-01-18T21:06:22.059Z,9.67
2023-01-18T21:08:52.759Z,7.27
2023-01-18T21:11:25.062Z,7.13
2023-01-18T21:13:53.912Z,8.33
2023-01-18T21:16:21.874Z,7.77
2023-01-18T21:18:52.441Z,9.37
2023-01-18T21:21:19.996Z,7.60
2023-01-18T21:23:47.018Z,8.70
2023-01-18T21:26:14.595Z,12.73
2023-01-18T21:28:41.512Z,7.47
2023-01-18T21:31:08.980Z,10.77
2023-01-18T21:33:35.868Z,9.47
2023-01-18T21:36:09.654Z,10.33
2023-01-18T21:38:36.630Z,7.73
2023-01-18T21:41:23.010Z,8.20
2023-01-18T21:44:11.357Z,14.57
2023-01-18T21:46:38.354Z,10.53
2023-01-18T21:49:42.936Z,8.10
2023-01-18T21:52:34.603Z,10.20
2023-01-18T21:55:01.334Z,9.13
2023-01-18T21:57:28.059Z,9.57
2023-01-18T21:59:54.793Z,8.03
2023-01-18T22:02:22.372Z,9.10
2023-01-18T22:05:03.102Z,8.47
2023-01-18T22:07:33.967Z,11.70
2023-01-18T22:10:05.643Z,8.87
2023-01-18T22:12:35.022Z,11.77
2023-01-18T22:15:03.203Z,15.80
2023-01-18T22:17:30.547Z,12.63
2023-01-18T22:19:57.413Z,13.70
2023-01-18T22:22:24.107Z,9.83
2023-01-18T22:24:50.952Z,10.93
2023-01-18T22:27:17.682Z,12.03
2023-01-18T22:29:44.409Z,7.43
2023-01-18T22:32:11.156Z,11.60
2023-01-18T22:34:37.913Z,11.40
2023-01-18T22:37:05.575Z,11.97
2023-01-18T22:39:32.376Z,10.50
2023-01-18T22:41:59.106Z,8.57
2023-01-18T22:44:25.956Z,9.77
2023-01-18T22:46:52.846Z,13.23
2023-01-18T22:49:19.602Z,13.60
2023-01-18T22:51:46.339Z,9.33
2023-01-18T22:54:13.150Z,10.33
2023-01-18T22:56:39.904Z,10.00
2023-01-18T22:59:07.673Z,12.33
2023-01-18T23:01:34.529Z,9.20
2023-01-18T23:04:04.195Z,7.97
2023-01-18T23:06:41.808Z,11.60
2023-01-18T23:09:10.572Z,10.00
2023-01-18T23:11:38.047Z,9.87
2023-01-18T23:14:24.104Z,7.67
2023-01-18T23:17:10.088Z,10.07
2023-01-18T23:19:37.224Z,11.57
2023-01-18T23:22:07.318Z,13.20
2023-01-18T23:24:36.790Z,10.93
2023-01-18T23:27:06.555Z,9.30
2023-01-18T23:29:33.699Z,11.40
2023-01-18T23:32:00.554Z,9.57
2023-01-18T23:34:27.311Z,13.37
2023-01-18T23:36:54.647Z,10.00
2023-01-18T23:39:40.071Z,11.27
2023-01-18T23:42:25.392Z,8.10
2023-01-18T23:45:10.829Z,9.30
2023-01-18T23:47:56.408Z,11.03
2023-01-18T23:50:42.236Z,9.23
2023-01-18T23:53:31.868Z,8.37
2023-01-18T23:55:59.958Z,12.60
2023-01-18T23:58:27.766Z,8.10
